sensor_id;sensor_type;location;lat;lon;timestamp;P1;durP1;ratioP1;P2;durP2;ratioP2
9485;SDS011;4781;48.776;9.200;2024-01-15T00:00:11;9.23;;;3.37;;
9485;SDS011;4781;48.776;9.200;2024-01-15T00:02:40;7.92;;;2.98;;
9485;SDS011;4781;48.776;9.200;2024-01-15T00:05:09;6.00;;;3.10;;
9485;SDS011;4781;48.776;9.200;2024-01-15T00:07:37;5.85;;;2.52;;
9485;SDS011;4781;48.776;9.200;2024-01-15T00:10:06;7.30;;;3.33;;
9485;SDS011;4781;48.776;9.200;2024-01-15T00:12:34;12.73;;;3.70;;
9485;SDS011;4781;48.776;9.200;2024-01-15T00:15:03;9.08;;;3.85;;
9485;SDS011;4781;48.776;9.200;2024-01-15T00:17:32;8.25;;;3.72;;
9485;SDS011;4781;48.776;9.200;2024-01-15T00:20:00;7.83;;;3.42;;
9485;SDS011;4781;48.776;9.200;2024-01-15T00:22:29;9.53;;;3.08;;
9485;SDS011;4781;48.776;9.200;2024-01-15T00:24:58;10.30;;;3.40;;
9485;SDS011;4781;48.776;9.200;2024-01-15T00:27:26;10.93;;;3.67;;
9485;SDS011;4781;48.776;9.200;2024-01-15T00:29:54;7.45;;;3.40;;
9485;SDS011;4781;48.776;9.200;2024-01-15T00:32:23;11.35;;;3.62;;
9485;SDS011;4781;48.776;9.200;2024-01-15T00:34:51;8.80;;;3.95;;
9485;SDS011;4781;48.776;9.200;2024-01-15T00:37:19;10.90;;;2.95;;
9485;SDS011;4781;48.776;9.200;2024-01-15T00:39:48;12.75;;;4.83;;
9485;SDS011;4781;48.776;9.200;2024-01-15T00:42:17;7.47;;;3.98;;
9485;SDS011;4781;48.776;9.200;2024-01-15T00:44:45;9.00;;;4.03;;
9485;SDS011;4781;48.776;9.200;2024-01-15T00:47:14;8.95;;;3.95;;
9485;SDS011;4781;48.776;9.200;2024-01-15T00:49:42;10.23;;;3.37;;
9485;SDS011;4781;48.776;9.200;2024-01-15T00:52:10;12.98;;;3.83;;
9485;SDS011;4781;48.776;9.200;2024-01-15T00:54:39;5.22;;;2.52;;
9485;SDS011;4781;48.776;9.200;2024-01-15T00:57:07;7.33;;;3.15;;
9485;SDS011;4781;48.776;9.200;2024-01-15T00:59:36;6.50;;;3.05;;
9485;SDS011;4781;48.776;9.200;2024-01-15T01:02:05;8.95;;;3.95;;
9485;SDS011;4781;48.776;9.200;2024-01-15T01:04:33;9.83;;;3.42;;
9485;SDS011;4781;48.776;9.200;2024-01-15T01:07:02;9.93;;;3.42;;
9485;SDS011;4781;48.776;9.200;2024-01-15T01:09:30;6.37;;;2.92;;
9485;SDS011;4781;48.776;9.200;2024-01-15T01:11:59;7.30;;;2.95;;
9485;SDS011;4781;48.776;9.200;2024-01-15T01:14:27;7.92;;;3.58;;
9485;SDS011;4781;48.776;9.200;2024-01-15T01:16:55;7.05;;;3.15;;
9485;SDS011;4781;48.776;9.200;2024-01-15T01:19:24;8.60;;;3.45;;
9485;SDS011;4781;48.776;9.200;2024-01-15T01:21:52;8.78;;;3.35;;
9485;SDS011;4781;48.776;9.200;2024-01-15T01:24:20;10.85;;;3.42;;
9485;SDS011;4781;48.776;9.200;2024-01-15T01:26:49;9.13;;;2.77;;
9485;SDS011;4781;48.776;9.200;2024-01-15T01:29:17;7.70;;;3.15;;
9485;SDS011;4781;48.776;9.200;2024-01-15T01:31:46;9.83;;;2.77;;
9485;SDS011;4781;48.776;9.200;2024-01-15T01:34:15;9.13;;;3.05;;
9485;SDS011;4781;48.776;9.200;2024-01-15T01:36:43;8.88;;;3.92;;
9485;SDS011;4781;48.776;9.200;2024-01-15T01:39:12;9.13;;;3.10;;
9485;SDS011;4781;48.776;9.200;2024-01-15T01:41:40;8.30;;;3.90;;
9485;SDS011;4781;48.776;9.200;2024-01-15T01:44:09;7.50;;;2.40;;
9485;SDS011;4781;48.776;9.200;2024-01-15T01:46:37;9.15;;;3.37;;
9485;SDS011;4781;48.776;9.200;2024-01-15T01:49:07;10.75;;;4.00;;
9485;SDS011;4781;48.776;9.200;2024-01-15T01:51:37;6.40;;;3.25;;
9485;SDS011;4781;48.776;9.200;2024-01-15T01:54:06;8.53;;;3.85;;
9485;SDS011;4781;48.776;9.200;2024-01-15T01:56:37;5.95;;;3.15;;
9485;SDS011;4781;48.776;9.200;2024-01-15T01:59:06;7.28;;;3.60;;
9485;SDS011;4781;48.776;9.200;2024-01-15T02:01:37;9.68;;;3.52;;
9485;SDS011;4781;48.776;9.200;2024-01-15T02:04:05;7.55;;;2.30;;
9485;SDS011;4781;48.776;9.200;2024-01-15T02:06:34;8.75;;;3.12;;
9485;SDS011;4781;48.776;9.200;2024-01-15T02:09:03;5.85;;;3.02;;
9485;SDS011;4781;48.776;9.200;2024-01-15T02:11:32;8.40;;;2.17;;
9485;SDS011;4781;48.776;9.200;2024-01-15T02:14:00;7.55;;;3.55;;
9485;SDS011;4781;48.776;9.200;2024-01-15T02:16:29;7.33;;;3.10;;
9485;SDS011;4781;48.776;9.200;2024-01-15T02:18:58;10.18;;;3.12;;
9485;SDS011;4781;48.776;9.200;2024-01-15T02:21:26;9.48;;;3.80;;
9485;SDS011;4781;48.776;9.200;2024-01-15T02:23:55;11.12;;;3.90;;
9485;SDS011;4781;48.776;9.200;2024-01-15T02:26:24;9.10;;;3.27;;
9485;SDS011;4781;48.776;9.200;2024-01-15T02:28:52;7.75;;;3.50;;
9485;SDS011;4781;48.776;9.200;2024-01-15T02:31:20;6.78;;;2.83;;
9485;SDS011;4781;48.776;9.200;2024-01-15T02:33:49;7.28;;;2.95;;
9485;SDS011;4781;48.776;9.200;2024-01-15T02:36:17;9.10;;;3.25;;
9485;SDS011;4781;48.776;9.200;2024-01-15T02:38:46;7.03;;;3.12;;
9485;SDS011;4781;48.776;9.200;2024-01-15T02:41:14;4.62;;;2.37;;
9485;SDS011;4781;48.776;9.200;2024-01-15T02:43:42;7.60;;;2.80;;
9485;SDS011;4781;48.776;9.200;2024-01-15T02:46:11;7.33;;;2.58;;
9485;SDS011;4781;48.776;9.200;2024-01-15T02:48:39;7.42;;;3.65;;
9485;SDS011;4781;48.776;9.200;2024-01-15T02:51:07;7.55;;;3.45;;
9485;SDS011;4781;48.776;9.200;2024-01-15T02:53:36;7.10;;;2.77;;
9485;SDS011;4781;48.776;9.200;2024-01-15T02:56:06;9.03;;;4.05;;
9485;SDS011;4781;48.776;9.200;2024-01-15T02:58:35;10.82;;;3.52;;
9485;SDS011;4781;48.776;9.200;2024-01-15T03:01:03;5.95;;;3.12;;
9485;SDS011;4781;48.776;9.200;2024-01-15T03:03:32;7.50;;;2.95;;
9485;SDS011;4781;48.776;9.200;2024-01-15T03:06:01;7.03;;;2.90;;
9485;SDS011;4781;48.776;9.200;2024-01-15T03:08:29;8.10;;;2.72;;
9485;SDS011;4781;48.776;9.200;2024-01-15T03:10:58;7.53;;;2.52;;
9485;SDS011;4781;48.776;9.200;2024-01-15T03:13:26;7.58;;;3.27;;
9485;SDS011;4781;48.776;9.200;2024-01-15T03:15:55;6.50;;;3.17;;
9485;SDS011;4781;48.776;9.200;2024-01-15T03:18:23;6.03;;;2.83;;
9485;SDS011;4781;48.776;9.200;2024-01-15T03:20:51;6.78;;;2.72;;
9485;SDS011;4781;48.776;9.200;2024-01-15T03:23:20;7.53;;;3.65;;
9485;SDS011;4781;48.776;9.200;2024-01-15T03:25:48;8.90;;;3.27;;
9485;SDS011;4781;48.776;9.200;2024-01-15T03:28:17;7.42;;;3.10;;
9485;SDS011;4781;48.776;9.200;2024-01-15T03:30:45;10.30;;;2.65;;
9485;SDS011;4781;48.776;9.200;2024-01-15T03:33:13;8.30;;;3.37;;
9485;SDS011;4781;48.776;9.200;2024-01-15T03:35:42;8.28;;;3.17;;
9485;SDS011;4781;48.776;9.200;2024-01-15T03:38:11;9.25;;;3.17;;
9485;SDS011;4781;48.776;9.200;2024-01-15T03:40:39;8.70;;;3.58;;
9485;SDS011;4781;48.776;9.200;2024-01-15T03:43:08;10.60;;;3.15;;
9485;SDS011;4781;48.776;9.200;2024-01-15T03:45:36;6.55;;;2.55;;
9485;SDS011;4781;48.776;9.200;2024-01-15T03:48:04;7.45;;;2.65;;
9485;SDS011;4781;48.776;9.200;2024-01-15T03:50:33;5.87;;;2.37;;
9485;SDS011;4781;48.776;9.200;2024-01-15T03:53:01;6.10;;;2.60;;
9485;SDS011;4781;48.776;9.200;2024-01-15T03:55:30;8.93;;;3.02;;
9485;SDS011;4781;48.776;9.200;2024-01-15T03:57:59;9.70;;;3.27;;
9485;SDS011;4781;48.776;9.200;2024-01-15T04:00:27;8.63;;;3.33;;
9485;SDS011;4781;48.776;9.200;2024-01-15T04:02:56;7.60;;;3.00;;
9485;SDS011;4781;48.776;9.200;2024-01-15T04:05:24;7.35;;;3.15;;
9485;SDS011;4781;48.776;9.200;2024-01-15T04:07:53;9.95;;;4.03;;
9485;SDS011;4781;48.776;9.200;2024-01-15T04:10:21;10.00;;;3.27;;
9485;SDS011;4781;48.776;9.200;2024-01-15T04:12:49;7.30;;;2.83;;
9485;SDS011;4781;48.776;9.200;2024-01-15T04:15:18;7.55;;;3.25;;
9485;SDS011;4781;48.776;9.200;2024-01-15T04:17:46;8.55;;;2.60;;
9485;SDS011;4781;48.776;9.200;2024-01-15T04:20:15;9.10;;;3.47;;
9485;SDS011;4781;48.776;9.200;2024-01-15T04:22:43;7.33;;;2.65;;
9485;SDS011;4781;48.776;9.200;2024-01-15T04:25:11;7.20;;;2.98;;
9485;SDS011;4781;48.776;9.200;2024-01-15T04:27:40;6.45;;;2.85;;
9485;SDS011;4781;48.776;9.200;2024-01-15T04:30:08;6.60;;;3.05;;
9485;SDS011;4781;48.776;9.200;2024-01-15T04:32:37;5.05;;;2.25;;
9485;SDS011;4781;48.776;9.200;2024-01-15T04:35:06;8.58;;;3.30;;
9485;SDS011;4781;48.776;9.200;2024-01-15T04:37:34;7.08;;;2.72;;
9485;SDS011;4781;48.776;9.200;2024-01-15T04:40:03;8.15;;;3.12;;
9485;SDS011;4781;48.776;9.200;2024-01-15T04:42:32;5.40;;;2.30;;
9485;SDS011;4781;48.776;9.200;2024-01-15T04:45:00;5.22;;;2.60;;
9485;SDS011;4781;48.776;9.200;2024-01-15T04:47:29;5.50;;;2.83;;
9485;SDS011;4781;48.776;9.200;2024-01-15T04:49:57;6.55;;;2.98;;
9485;SDS011;4781;48.776;9.200;2024-01-15T04:52:26;8.00;;;3.02;;
9485;SDS011;4781;48.776;9.200;2024-01-15T04:54:54;5.00;;;2.25;;
9485;SDS011;4781;48.776;9.200;2024-01-15T04:57:23;6.37;;;2.47;;
9485;SDS011;4781;48.776;9.200;2024-01-15T04:59:51;5.25;;;2.50;;
9485;SDS011;4781;48.776;9.200;2024-01-15T05:02:19;5.62;;;2.62;;
9485;SDS011;4781;48.776;9.200;2024-01-15T05:04:48;8.45;;;2.90;;
9485;SDS011;4781;48.776;9.200;2024-01-15T05:07:16;5.53;;;3.05;;
9485;SDS011;4781;48.776;9.200;2024-01-15T05:09:44;6.12;;;2.10;;
9485;SDS011;4781;48.776;9.200;2024-01-15T05:12:13;7.95;;;3.40;;
9485;SDS011;4781;48.776;9.200;2024-01-15T05:14:41;7.58;;;3.47;;
9485;SDS011;4781;48.776;9.200;2024-01-15T05:17:10;6.65;;;2.58;;
9485;SDS011;4781;48.776;9.200;2024-01-15T05:19:38;8.00;;;3.33;;
9485;SDS011;4781;48.776;9.200;2024-01-15T05:22:06;5.90;;;2.10;;
9485;SDS011;4781;48.776;9.200;2024-01-15T05:24:35;7.70;;;3.02;;
9485;SDS011;4781;48.776;9.200;2024-01-15T05:27:03;7.58;;;3.17;;
9485;SDS011;4781;48.776;9.200;2024-01-15T05:29:31;7.12;;;2.83;;
9485;SDS011;4781;48.776;9.200;2024-01-15T05:32:00;5.72;;;2.58;;
9485;SDS011;4781;48.776;9.200;2024-01-15T05:34:28;5.33;;;2.98;;
9485;SDS011;4781;48.776;9.200;2024-01-15T05:36:57;9.08;;;2.60;;
9485;SDS011;4781;48.776;9.200;2024-01-15T05:39:25;7.47;;;3.00;;
9485;SDS011;4781;48.776;9.200;2024-01-15T05:41:53;5.30;;;2.35;;
9485;SDS011;4781;48.776;9.200;2024-01-15T05:44:22;5.83;;;2.92;;
9485;SDS011;4781;48.776;9.200;2024-01-15T05:46:50;6.42;;;2.92;;
9485;SDS011;4781;48.776;9.200;2024-01-15T05:49:18;6.83;;;2.70;;
9485;SDS011;4781;48.776;9.200;2024-01-15T05:51:47;8.00;;;2.62;;
9485;SDS011;4781;48.776;9.200;2024-01-15T05:54:18;5.95;;;2.22;;
9485;SDS011;4781;48.776;9.200;2024-01-15T05:56:46;8.90;;;2.77;;
9485;SDS011;4781;48.776;9.200;2024-01-15T05:59:15;7.50;;;2.92;;
9485;SDS011;4781;48.776;9.200;2024-01-15T06:01:43;5.45;;;2.25;;
9485;SDS011;4781;48.776;9.200;2024-01-15T06:04:12;6.97;;;2.52;;
9485;SDS011;4781;48.776;9.200;2024-01-15T06:06:40;7.37;;;2.77;;
9485;SDS011;4781;48.776;9.200;2024-01-15T06:09:08;8.23;;;2.95;;
9485;SDS011;4781;48.776;9.200;2024-01-15T06:11:37;8.10;;;3.02;;
9485;SDS011;4781;48.776;9.200;2024-01-15T06:14:05;5.12;;;2.95;;
9485;SDS011;4781;48.776;9.200;2024-01-15T06:16:33;8.00;;;2.72;;
9485;SDS011;4781;48.776;9.200;2024-01-15T06:19:03;8.38;;;3.00;;
9485;SDS011;4781;48.776;9.200;2024-01-15T06:21:31;10.08;;;3.62;;
9485;SDS011;4781;48.776;9.200;2024-01-15T06:23:59;7.55;;;2.77;;
9485;SDS011;4781;48.776;9.200;2024-01-15T06:26:28;8.15;;;3.35;;
9485;SDS011;4781;48.776;9.200;2024-01-15T06:28:56;6.37;;;2.80;;
9485;SDS011;4781;48.776;9.200;2024-01-15T06:31:25;4.08;;;2.37;;
9485;SDS011;4781;48.776;9.200;2024-01-15T06:33:53;4.47;;;2.33;;
9485;SDS011;4781;48.776;9.200;2024-01-15T06:36:22;6.50;;;2.52;;
9485;SDS011;4781;48.776;9.200;2024-01-15T06:38:51;5.20;;;2.47;;
9485;SDS011;4781;48.776;9.200;2024-01-15T06:41:19;7.45;;;3.12;;
9485;SDS011;4781;48.776;9.200;2024-01-15T06:43:48;6.45;;;2.83;;
9485;SDS011;4781;48.776;9.200;2024-01-15T06:46:22;5.45;;;2.80;;
9485;SDS011;4781;48.776;9.200;2024-01-15T06:48:51;5.33;;;2.67;;
9485;SDS011;4781;48.776;9.200;2024-01-15T06:51:19;7.80;;;2.92;;
9485;SDS011;4781;48.776;9.200;2024-01-15T06:53:48;8.05;;;3.50;;
9485;SDS011;4781;48.776;9.200;2024-01-15T06:56:16;6.60;;;2.35;;
9485;SDS011;4781;48.776;9.200;2024-01-15T06:58:44;5.90;;;2.85;;
9485;SDS011;4781;48.776;9.200;2024-01-15T07:01:13;6.95;;;2.67;;
9485;SDS011;4781;48.776;9.200;2024-01-15T07:03:41;3.80;;;2.72;;
9485;SDS011;4781;48.776;9.200;2024-01-15T07:06:10;5.58;;;2.95;;
9485;SDS011;4781;48.776;9.200;2024-01-15T07:08:39;8.33;;;2.60;;
9485;SDS011;4781;48.776;9.200;2024-01-15T07:11:08;7.00;;;3.52;;
9485;SDS011;4781;48.776;9.200;2024-01-15T07:13:36;5.97;;;2.52;;
9485;SDS011;4781;48.776;9.200;2024-01-15T07:16:05;8.03;;;2.65;;
9485;SDS011;4781;48.776;9.200;2024-01-15T07:18:33;7.70;;;2.60;;
9485;SDS011;4781;48.776;9.200;2024-01-15T07:21:02;8.03;;;2.45;;
9485;SDS011;4781;48.776;9.200;2024-01-15T07:23:31;4.30;;;2.52;;
9485;SDS011;4781;48.776;9.200;2024-01-15T07:25:59;6.80;;;2.42;;
9485;SDS011;4781;48.776;9.200;2024-01-15T07:28:31;7.53;;;3.05;;
9485;SDS011;4781;48.776;9.200;2024-01-15T07:30:59;7.45;;;3.42;;
9485;SDS011;4781;48.776;9.200;2024-01-15T07:33:28;6.45;;;2.52;;
9485;SDS011;4781;48.776;9.200;2024-01-15T07:35:57;6.95;;;3.02;;
9485;SDS011;4781;48.776;9.200;2024-01-15T07:38:25;8.40;;;2.83;;
9485;SDS011;4781;48.776;9.200;2024-01-15T07:40:54;5.60;;;2.75;;
9485;SDS011;4781;48.776;9.200;2024-01-15T07:43:22;6.72;;;3.15;;
9485;SDS011;4781;48.776;9.200;2024-01-15T07:45:51;6.40;;;2.47;;
9485;SDS011;4781;48.776;9.200;2024-01-15T07:48:19;6.00;;;2.55;;
9485;SDS011;4781;48.776;9.200;2024-01-15T07:50:47;9.35;;;2.77;;
9485;SDS011;4781;48.776;9.200;2024-01-15T07:53:16;7.72;;;2.90;;
9485;SDS011;4781;48.776;9.200;2024-01-15T07:55:45;6.97;;;3.00;;
9485;SDS011;4781;48.776;9.200;2024-01-15T07:58:13;8.03;;;2.72;;
9485;SDS011;4781;48.776;9.200;2024-01-15T08:00:42;6.08;;;2.77;;
9485;SDS011;4781;48.776;9.200;2024-01-15T08:03:11;4.35;;;2.00;;
9485;SDS011;4781;48.776;9.200;2024-01-15T08:05:41;5.78;;;2.20;;
9485;SDS011;4781;48.776;9.200;2024-01-15T08:08:09;5.15;;;2.33;;
9485;SDS011;4781;48.776;9.200;2024-01-15T08:10:37;7.78;;;3.08;;
9485;SDS011;4781;48.776;9.200;2024-01-15T08:13:06;5.83;;;2.83;;
9485;SDS011;4781;48.776;9.200;2024-01-15T08:15:35;7.12;;;2.47;;
9485;SDS011;4781;48.776;9.200;2024-01-15T08:18:03;5.83;;;2.60;;
9485;SDS011;4781;48.776;9.200;2024-01-15T08:20:31;5.50;;;2.55;;
9485;SDS011;4781;48.776;9.200;2024-01-15T08:23:00;7.37;;;2.67;;
9485;SDS011;4781;48.776;9.200;2024-01-15T08:25:28;4.10;;;2.58;;
9485;SDS011;4781;48.776;9.200;2024-01-15T08:27:57;6.83;;;2.02;;
9485;SDS011;4781;48.776;9.200;2024-01-15T08:30:25;7.60;;;2.80;;
9485;SDS011;4781;48.776;9.200;2024-01-15T08:32:55;5.72;;;2.67;;
9485;SDS011;4781;48.776;9.200;2024-01-15T08:35:25;3.02;;;1.77;;
9485;SDS011;4781;48.776;9.200;2024-01-15T08:37:53;8.43;;;3.25;;
9485;SDS011;4781;48.776;9.200;2024-01-15T08:40:21;6.67;;;2.30;;
9485;SDS011;4781;48.776;9.200;2024-01-15T08:42:50;6.85;;;2.37;;
9485;SDS011;4781;48.776;9.200;2024-01-15T08:45:18;4.50;;;1.92;;
9485;SDS011;4781;48.776;9.200;2024-01-15T08:47:47;4.42;;;2.27;;
9485;SDS011;4781;48.776;9.200;2024-01-15T08:50:16;6.65;;;2.30;;
9485;SDS011;4781;48.776;9.200;2024-01-15T08:52:44;5.45;;;2.55;;
9485;SDS011;4781;48.776;9.200;2024-01-15T08:55:12;7.67;;;2.72;;
9485;SDS011;4781;48.776;9.200;2024-01-15T08:57:41;9.25;;;2.67;;
9485;SDS011;4781;48.776;9.200;2024-01-15T09:00:09;5.33;;;2.55;;
9485;SDS011;4781;48.776;9.200;2024-01-15T09:02:39;5.80;;;2.80;;
9485;SDS011;4781;48.776;9.200;2024-01-15T09:05:07;5.90;;;2.10;;
9485;SDS011;4781;48.776;9.200;2024-01-15T09:07:36;4.42;;;2.08;;
9485;SDS011;4781;48.776;9.200;2024-01-15T09:10:04;4.15;;;1.85;;
9485;SDS011;4781;48.776;9.200;2024-01-15T09:12:33;4.67;;;2.05;;
9485;SDS011;4781;48.776;9.200;2024-01-15T09:15:01;5.55;;;1.98;;
9485;SDS011;4781;48.776;9.200;2024-01-15T09:17:30;3.35;;;2.08;;
9485;SDS011;4781;48.776;9.200;2024-01-15T09:19:59;4.75;;;2.00;;
9485;SDS011;4781;48.776;9.200;2024-01-15T09:22:30;3.77;;;1.90;;
9485;SDS011;4781;48.776;9.200;2024-01-15T09:24:58;4.47;;;2.08;;
9485;SDS011;4781;48.776;9.200;2024-01-15T09:27:27;3.75;;;1.98;;
9485;SDS011;4781;48.776;9.200;2024-01-15T09:29:55;5.15;;;2.30;;
9485;SDS011;4781;48.776;9.200;2024-01-15T09:32:24;4.55;;;2.42;;
9485;SDS011;4781;48.776;9.200;2024-01-15T09:34:52;4.25;;;2.15;;
9485;SDS011;4781;48.776;9.200;2024-01-15T09:37:21;6.45;;;2.20;;
9485;SDS011;4781;48.776;9.200;2024-01-15T09:39:49;8.40;;;2.40;;
9485;SDS011;4781;48.776;9.200;2024-01-15T09:42:18;4.40;;;2.40;;
9485;SDS011;4781;48.776;9.200;2024-01-15T09:44:47;3.85;;;1.72;;
9485;SDS011;4781;48.776;9.200;2024-01-15T09:47:16;5.97;;;1.90;;
9485;SDS011;4781;48.776;9.200;2024-01-15T09:49:46;6.33;;;1.98;;
9485;SDS011;4781;48.776;9.200;2024-01-15T09:52:14;4.62;;;2.35;;
9485;SDS011;4781;48.776;9.200;2024-01-15T09:54:46;5.92;;;1.75;;
9485;SDS011;4781;48.776;9.200;2024-01-15T09:57:14;5.20;;;2.33;;
9485;SDS011;4781;48.776;9.200;2024-01-15T09:59:43;4.28;;;2.10;;
9485;SDS011;4781;48.776;9.200;2024-01-15T10:02:13;4.05;;;1.72;;
9485;SDS011;4781;48.776;9.200;2024-01-15T10:04:44;4.03;;;1.90;;
9485;SDS011;4781;48.776;9.200;2024-01-15T10:07:15;3.05;;;1.55;;
9485;SDS011;4781;48.776;9.200;2024-01-15T10:09:46;4.35;;;1.82;;
9485;SDS011;4781;48.776;9.200;2024-01-15T10:12:14;3.45;;;1.60;;
9485;SDS011;4781;48.776;9.200;2024-01-15T10:14:43;6.67;;;2.30;;
9485;SDS011;4781;48.776;9.200;2024-01-15T10:17:12;4.87;;;2.12;;
9485;SDS011;4781;48.776;9.200;2024-01-15T10:19:41;3.87;;;1.87;;
9485;SDS011;4781;48.776;9.200;2024-01-15T10:22:13;5.40;;;2.02;;
9485;SDS011;4781;48.776;9.200;2024-01-15T10:24:42;5.53;;;2.22;;
9485;SDS011;4781;48.776;9.200;2024-01-15T10:27:11;4.67;;;2.00;;
9485;SDS011;4781;48.776;9.200;2024-01-15T10:29:41;4.15;;;1.80;;
9485;SDS011;4781;48.776;9.200;2024-01-15T10:32:10;4.50;;;1.70;;
9485;SDS011;4781;48.776;9.200;2024-01-15T10:34:44;7.12;;;2.35;;
9485;SDS011;4781;48.776;9.200;2024-01-15T10:37:09;5.97;;;2.25;;
9485;SDS011;4781;48.776;9.200;2024-01-15T10:39:38;4.20;;;2.27;;
9485;SDS011;4781;48.776;9.200;2024-01-15T10:42:06;4.33;;;1.98;;
9485;SDS011;4781;48.776;9.200;2024-01-15T10:44:35;5.50;;;2.02;;
9485;SDS011;4781;48.776;9.200;2024-01-15T10:47:03;3.27;;;1.60;;
9485;SDS011;4781;48.776;9.200;2024-01-15T10:49:32;4.60;;;2.40;;
9485;SDS011;4781;48.776;9.200;2024-01-15T10:52:01;5.92;;;1.95;;
9485;SDS011;4781;48.776;9.200;2024-01-15T10:54:30;7.53;;;2.30;;
9485;SDS011;4781;48.776;9.200;2024-01-15T10:57:00;3.37;;;1.82;;
9485;SDS011;4781;48.776;9.200;2024-01-15T10:59:29;5.47;;;2.33;;
9485;SDS011;4781;48.776;9.200;2024-01-15T11:01:58;3.40;;;1.67;;
9485;SDS011;4781;48.776;9.200;2024-01-15T11:04:27;4.17;;;2.12;;
9485;SDS011;4781;48.776;9.200;2024-01-15T11:06:58;3.95;;;1.80;;
9485;SDS011;4781;48.776;9.200;2024-01-15T11:09:29;6.12;;;2.20;;
9485;SDS011;4781;48.776;9.200;2024-01-15T11:12:08;5.80;;;2.27;;
9485;SDS011;4781;48.776;9.200;2024-01-15T11:14:45;4.40;;;1.72;;
9485;SDS011;4781;48.776;9.200;2024-01-15T11:17:16;7.20;;;2.52;;
9485;SDS011;4781;48.776;9.200;2024-01-15T11:19:46;4.58;;;2.25;;
9485;SDS011;4781;48.776;9.200;2024-01-15T11:25:15;5.47;;;2.42;;
9485;SDS011;4781;48.776;9.200;2024-01-15T11:27:51;4.40;;;2.00;;
9485;SDS011;4781;48.776;9.200;2024-01-15T11:30:18;5.27;;;2.60;;
9485;SDS011;4781;48.776;9.200;2024-01-15T11:32:48;5.10;;;2.27;;
9485;SDS011;4781;48.776;9.200;2024-01-15T11:35:17;4.60;;;2.25;;
9485;SDS011;4781;48.776;9.200;2024-01-15T11:38:06;5.87;;;2.05;;
9485;SDS011;4781;48.776;9.200;2024-01-15T11:43:08;4.60;;;2.20;;
9485;SDS011;4781;48.776;9.200;2024-01-15T11:45:38;5.78;;;2.20;;
9485;SDS011;4781;48.776;9.200;2024-01-15T11:48:10;4.90;;;2.40;;
9485;SDS011;4781;48.776;9.200;2024-01-15T11:50:46;6.67;;;2.17;;
9485;SDS011;4781;48.776;9.200;2024-01-15T11:53:32;5.62;;;2.00;;
9485;SDS011;4781;48.776;9.200;2024-01-15T11:56:16;5.80;;;2.40;;
9485;SDS011;4781;48.776;9.200;2024-01-15T11:58:46;5.03;;;1.85;;
9485;SDS011;4781;48.776;9.200;2024-01-15T12:01:16;4.78;;;2.35;;
9485;SDS011;4781;48.776;9.200;2024-01-15T12:03:47;7.20;;;2.62;;
9485;SDS011;4781;48.776;9.200;2024-01-15T12:06:15;5.28;;;2.42;;
9485;SDS011;4781;48.776;9.200;2024-01-15T12:08:44;4.85;;;2.00;;
9485;SDS011;4781;48.776;9.200;2024-01-15T12:11:13;5.15;;;1.92;;
9485;SDS011;4781;48.776;9.200;2024-01-15T12:13:43;5.97;;;2.15;;
9485;SDS011;4781;48.776;9.200;2024-01-15T12:16:12;6.28;;;2.27;;
9485;SDS011;4781;48.776;9.200;2024-01-15T12:18:40;3.17;;;1.60;;
9485;SDS011;4781;48.776;9.200;2024-01-15T12:21:09;7.35;;;2.83;;
9485;SDS011;4781;48.776;9.200;2024-01-15T12:23:38;3.37;;;1.62;;
9485;SDS011;4781;48.776;9.200;2024-01-15T12:26:07;5.25;;;2.17;;
9485;SDS011;4781;48.776;9.200;2024-01-15T12:28:36;5.25;;;2.27;;
9485;SDS011;4781;48.776;9.200;2024-01-15T12:31:05;6.97;;;2.30;;
9485;SDS011;4781;48.776;9.200;2024-01-15T12:33:33;4.45;;;2.10;;
9485;SDS011;4781;48.776;9.200;2024-01-15T12:36:02;7.17;;;2.95;;
9485;SDS011;4781;48.776;9.200;2024-01-15T12:38:32;5.05;;;2.65;;
9485;SDS011;4781;48.776;9.200;2024-01-15T12:41:00;3.95;;;2.00;;
9485;SDS011;4781;48.776;9.200;2024-01-15T12:43:29;4.15;;;1.90;;
9485;SDS011;4781;48.776;9.200;2024-01-15T12:45:57;3.87;;;1.62;;
9485;SDS011;4781;48.776;9.200;2024-01-15T12:48:25;2.72;;;1.65;;
9485;SDS011;4781;48.776;9.200;2024-01-15T12:50:55;5.92;;;2.08;;
9485;SDS011;4781;48.776;9.200;2024-01-15T12:53:23;6.15;;;2.67;;
9485;SDS011;4781;48.776;9.200;2024-01-15T12:55:51;3.12;;;1.42;;
9485;SDS011;4781;48.776;9.200;2024-01-15T12:58:20;5.40;;;1.77;;
9485;SDS011;4781;48.776;9.200;2024-01-15T13:00:48;4.53;;;2.22;;
9485;SDS011;4781;48.776;9.200;2024-01-15T13:03:17;3.47;;;1.87;;
9485;SDS011;4781;48.776;9.200;2024-01-15T13:05:45;5.22;;;2.35;;
9485;SDS011;4781;48.776;9.200;2024-01-15T13:08:14;4.50;;;1.47;;
9485;SDS011;4781;48.776;9.200;2024-01-15T13:10:43;4.03;;;1.70;;
9485;SDS011;4781;48.776;9.200;2024-01-15T13:13:11;4.22;;;1.85;;
9485;SDS011;4781;48.776;9.200;2024-01-15T13:15:40;2.85;;;1.77;;
9485;SDS011;4781;48.776;9.200;2024-01-15T13:18:08;4.55;;;2.15;;
9485;SDS011;4781;48.776;9.200;2024-01-15T13:20:36;2.90;;;1.62;;
9485;SDS011;4781;48.776;9.200;2024-01-15T13:23:05;3.55;;;1.72;;
9485;SDS011;4781;48.776;9.200;2024-01-15T13:25:33;3.25;;;1.92;;
9485;SDS011;4781;48.776;9.200;2024-01-15T13:28:09;3.20;;;1.60;;
9485;SDS011;4781;48.776;9.200;2024-01-15T13:30:34;3.60;;;2.00;;
9485;SDS011;4781;48.776;9.200;2024-01-15T13:33:03;3.00;;;1.50;;
9485;SDS011;4781;48.776;9.200;2024-01-15T13:35:31;2.58;;;1.40;;
9485;SDS011;4781;48.776;9.200;2024-01-15T13:38:05;4.08;;;2.00;;
9485;SDS011;4781;48.776;9.200;2024-01-15T13:40:34;2.92;;;1.52;;
9485;SDS011;4781;48.776;9.200;2024-01-15T13:43:03;2.98;;;1.65;;
9485;SDS011;4781;48.776;9.200;2024-01-15T13:45:33;3.17;;;1.10;;
9485;SDS011;4781;48.776;9.200;2024-01-15T13:48:03;3.40;;;1.42;;
9485;SDS011;4781;48.776;9.200;2024-01-15T13:50:32;2.85;;;1.60;;
9485;SDS011;4781;48.776;9.200;2024-01-15T13:53:03;3.75;;;1.30;;
9485;SDS011;4781;48.776;9.200;2024-01-15T13:55:32;3.10;;;1.35;;
9485;SDS011;4781;48.776;9.200;2024-01-15T13:58:00;3.62;;;1.40;;
9485;SDS011;4781;48.776;9.200;2024-01-15T14:00:31;4.03;;;1.63;;
9485;SDS011;4781;48.776;9.200;2024-01-15T14:03:00;4.92;;;1.37;;
9485;SDS011;4781;48.776;9.200;2024-01-15T14:05:29;3.02;;;1.92;;
9485;SDS011;4781;48.776;9.200;2024-01-15T14:07:57;3.47;;;1.20;;
9485;SDS011;4781;48.776;9.200;2024-01-15T14:10:26;4.80;;;1.72;;
9485;SDS011;4781;48.776;9.200;2024-01-15T14:12:54;6.47;;;1.70;;
9485;SDS011;4781;48.776;9.200;2024-01-15T14:15:23;2.90;;;1.52;;
9485;SDS011;4781;48.776;9.200;2024-01-15T14:17:53;4.47;;;1.70;;
9485;SDS011;4781;48.776;9.200;2024-01-15T14:20:21;3.33;;;1.35;;
9485;SDS011;4781;48.776;9.200;2024-01-15T14:22:49;2.30;;;1.40;;
9485;SDS011;4781;48.776;9.200;2024-01-15T14:25:18;2.98;;;1.40;;
9485;SDS011;4781;48.776;9.200;2024-01-15T14:27:48;2.47;;;1.15;;
9485;SDS011;4781;48.776;9.200;2024-01-15T14:30:17;6.17;;;1.93;;
9485;SDS011;4781;48.776;9.200;2024-01-15T14:32:45;3.08;;;1.15;;
9485;SDS011;4781;48.776;9.200;2024-01-15T14:35:14;3.35;;;1.67;;
9485;SDS011;4781;48.776;9.200;2024-01-15T14:37:42;2.35;;;1.37;;
9485;SDS011;4781;48.776;9.200;2024-01-15T14:40:11;3.35;;;1.75;;
9485;SDS011;4781;48.776;9.200;2024-01-15T14:42:41;2.72;;;1.30;;
9485;SDS011;4781;48.776;9.200;2024-01-15T14:45:10;2.35;;;1.32;;
9485;SDS011;4781;48.776;9.200;2024-01-15T14:47:38;3.05;;;1.50;;
9485;SDS011;4781;48.776;9.200;2024-01-15T14:50:07;3.37;;;1.25;;
9485;SDS011;4781;48.776;9.200;2024-01-15T14:52:36;3.27;;;1.57;;
9485;SDS011;4781;48.776;9.200;2024-01-15T14:55:06;3.00;;;1.82;;
9485;SDS011;4781;48.776;9.200;2024-01-15T14:57:38;3.40;;;1.60;;
9485;SDS011;4781;48.776;9.200;2024-01-15T15:00:06;3.05;;;1.60;;
9485;SDS011;4781;48.776;9.200;2024-01-15T15:02:35;4.60;;;1.98;;
9485;SDS011;4781;48.776;9.200;2024-01-15T15:05:04;3.85;;;1.75;;
9485;SDS011;4781;48.776;9.200;2024-01-15T15:07:33;3.50;;;1.92;;
9485;SDS011;4781;48.776;9.200;2024-01-15T15:10:02;4.03;;;1.92;;
9485;SDS011;4781;48.776;9.200;2024-01-15T15:12:31;4.92;;;2.02;;
9485;SDS011;4781;48.776;9.200;2024-01-15T15:15:00;4.15;;;2.15;;
9485;SDS011;4781;48.776;9.200;2024-01-15T15:17:28;5.65;;;2.77;;
9485;SDS011;4781;48.776;9.200;2024-01-15T15:19:57;4.78;;;2.52;;
9485;SDS011;4781;48.776;9.200;2024-01-15T15:22:25;5.97;;;2.60;;
9485;SDS011;4781;48.776;9.200;2024-01-15T15:24:53;6.10;;;2.62;;
9485;SDS011;4781;48.776;9.200;2024-01-15T15:27:22;4.28;;;2.35;;
9485;SDS011;4781;48.776;9.200;2024-01-15T15:29:50;4.95;;;2.30;;